Time;durP1;ratioP1;P1;durP2;ratioP2;P2;SDS_P1;SDS_P2;PMS_P1;PMS_P2;Temp;Humidity;BMP_temperature;BMP_pressure;BME280_temperature;BME280_humidity;BME280_pressure;Samples;Min_cycle;Max_cycle;Signal;HPM_P1;HPM_P2
2023/06/22 00:01:15;;;;;;;18.88;11.82;;;19.90;99.90;;;;;;5009609;28;20042;-78
2023/06/22 00:03:41;;;;;;;19.70;11.65;;;19.70;99.90;;;;;;4990038;28;20037;-77
2023/06/22 00:06:07;;;;;;;17.92;11.20;;;19.60;99.90;;;;;;5009596;28;20058;-77
2023/06/22 00:08:32;;;;;;;25.88;11.52;;;19.50;99.90;;;;;;5009926;28;20038;-78
2023/06/22 00:10:58;;;;;;;20.83;10.43;;;19.50;99.90;;;;;;5009789;28;20056;-76
2023/06/22 00:13:23;;;;;;;17.25;10.60;;;19.60;99.90;;;;;;5007244;28;20030;-78
2023/06/22 00:15:49;;;;;;;19.85;10.82;;;19.60;99.90;;;;;;5009853;28;20486;-75
2023/06/22 00:18:15;;;;;;;18.17;10.57;;;19.70;99.90;;;;;;5009040;28;20040;-76
2023/06/22 00:20:41;;;;;;;19.70;10.93;;;19.70;99.90;;;;;;5010955;28;20038;-77
2023/06/22 00:23:08;;;;;;;22.45;11.15;;;19.80;99.90;;;;;;5009742;28;20478;-74
2023/06/22 00:25:43;;;;;;;21.40;10.77;;;19.80;99.90;;;;;;5009334;28;20021;-77
2023/06/22 00:28:09;;;;;;;19.23;10.25;;;19.80;99.90;;;;;;5009162;28;20034;-77
2023/06/22 00:30:35;;;;;;;19.80;10.50;;;19.80;99.90;;;;;;5007893;28;20552;-74
2023/06/22 00:33:01;;;;;;;22.70;11.30;;;19.80;99.90;;;;;;5006698;28;20081;-76
2023/06/22 00:35:30;;;;;;;20.45;10.65;;;19.80;99.90;;;;;;5008754;28;20784;-77
2023/06/22 00:38:04;;;;;;;22.52;11.48;;;19.80;99.90;;;;;;5010179;28;20079;-77
2023/06/22 00:40:31;;;;;;;21.58;9.95;;;19.70;99.90;;;;;;5008594;28;20050;-73
2023/06/22 00:42:57;;;;;;;22.05;11.32;;;19.70;99.90;;;;;;5007296;28;20120;-73
2023/06/22 00:45:24;;;;;;;23.65;12.45;;;19.70;99.90;;;;;;5003860;28;20481;-77
2023/06/22 00:47:52;;;;;;;21.80;11.88;;;19.60;99.90;;;;;;5008024;28;20111;-76
2023/06/22 00:50:21;;;;;;;21.13;11.70;;;19.50;99.90;;;;;;5007610;28;20046;-77
2023/06/22 00:52:58;;;;;;;20.42;11.38;;;19.50;99.90;;;;;;5008391;28;20713;-74
2023/06/22 00:55:25;;;;;;;18.67;11.40;;;19.50;99.90;;;;;;5009560;28;20046;-77
2023/06/22 00:57:55;;;;;;;22.95;11.68;;;19.40;99.90;;;;;;5008007;28;20147;-76
2023/06/22 01:00:24;;;;;;;19.67;11.47;;;19.40;99.90;;;;;;5002412;28;20044;-74
2023/06/22 01:02:53;;;;;;;21.58;11.90;;;19.40;99.90;;;;;;5005606;28;20034;-74
2023/06/22 01:05:20;;;;;;;25.38;12.38;;;19.40;99.90;;;;;;5007978;28;20421;-78
2023/06/22 01:08:00;;;;;;;24.75;12.02;;;19.40;99.90;;;;;;5008818;28;20038;-76
2023/06/22 01:10:33;;;;;;;21.15;11.57;;;19.40;99.90;;;;;;5002220;28;20061;-77
2023/06/22 01:13:06;;;;;;;25.52;11.85;;;19.40;99.90;;;;;;5008729;28;20087;-76
2023/06/22 01:15:39;;;;;;;20.73;12.82;;;19.40;99.90;;;;;;5005810;28;20116;-76
2023/06/22 01:18:08;;;;;;;22.70;11.93;;;19.30;99.90;;;;;;5008095;28;20057;-76
2023/06/22 01:20:35;;;;;;;20.23;12.07;;;19.30;99.90;;;;;;5006792;28;20037;-73
2023/06/22 01:23:16;;;;;;;20.10;11.75;;;19.30;99.90;;;;;;5001385;28;20462;-77
2023/06/22 01:25:50;;;;;;;20.17;12.40;;;19.30;99.90;;;;;;5007428;28;20033;-74
2023/06/22 01:28:42;;;;;;;21.00;12.25;;;19.30;99.90;;;;;;5008628;28;20059;-74
2023/06/22 01:31:10;;;;;;;18.38;11.50;;;19.30;99.90;;;;;;5006182;28;20047;-76
2023/06/22 01:33:39;;;;;;;22.73;10.98;;;19.30;99.90;;;;;;5004579;28;20046;-75
2023/06/22 01:36:06;;;;;;;22.75;11.55;;;19.40;99.90;;;;;;5006685;28;20121;-73
2023/06/22 01:38:33;;;;;;;21.55;10.85;;;19.40;99.90;;;;;;5001272;28;20034;-74
2023/06/22 01:41:00;;;;;;;18.33;10.80;;;19.40;99.90;;;;;;5008287;28;20038;-75
2023/06/22 01:43:27;;;;;;;19.90;11.18;;;19.50;99.90;;;;;;5007853;28;20030;-77
2023/06/22 01:45:55;;;;;;;23.02;10.80;;;19.40;99.90;;;;;;5006062;28;20386;-75
2023/06/22 01:48:21;;;;;;;18.48;10.73;;;19.30;99.90;;;;;;5005981;28;20030;-78
2023/06/22 01:50:47;;;;;;;19.92;10.55;;;19.30;99.90;;;;;;5007410;28;20038;-73
2023/06/22 01:53:13;;;;;;;23.08;11.82;;;19.30;99.90;;;;;;4990257;28;20044;-75
2023/06/22 01:55:38;;;;;;;19.23;11.93;;;19.30;99.90;;;;;;5003769;28;20029;-76
2023/06/22 01:58:04;;;;;;;27.08;12.30;;;19.10;99.90;;;;;;5003557;28;20032;-79
2023/06/22 02:00:34;;;;;;;23.02;12.77;;;18.90;99.90;;;;;;5007700;28;20041;-75
2023/06/22 02:03:07;;;;;;;21.75;12.02;;;18.60;99.90;;;;;;5002950;28;20402;-75
2023/06/22 02:05:40;;;;;;;23.13;13.02;;;18.40;99.90;;;;;;5006986;28;20112;-74
2023/06/22 02:08:11;;;;;;;23.85;12.43;;;18.40;99.90;;;;;;5008503;28;20088;-75
2023/06/22 02:10:41;;;;;;;24.48;12.52;;;18.30;99.90;;;;;;5006324;28;20185;-74
2023/06/22 02:13:08;;;;;;;21.33;12.07;;;18.30;99.90;;;;;;5006975;28;20045;-75
2023/06/22 02:15:34;;;;;;;20.50;12.73;;;18.20;99.90;;;;;;5007533;28;20029;-74
2023/06/22 02:18:00;;;;;;;23.35;12.10;;;18.10;99.90;;;;;;5007874;28;20074;-76
2023/06/22 02:20:26;;;;;;;22.25;11.60;;;18.10;99.90;;;;;;5002057;28;21212;-75
2023/06/22 02:22:51;;;;;;;22.70;12.38;;;18.10;99.90;;;;;;5000274;28;20034;-74
2023/06/22 02:25:17;;;;;;;21.88;12.50;;;18.10;99.90;;;;;;5010916;28;20033;-73
2023/06/22 02:27:43;;;;;;;22.67;13.00;;;18.10;99.90;;;;;;5028159;28;20031;-76
2023/06/22 02:30:09;;;;;;;22.35;12.77;;;18.10;99.90;;;;;;4993129;28;20401;-75
2023/06/22 02:32:35;;;;;;;21.23;11.85;;;18.10;99.90;;;;;;5007571;28;20034;-77
2023/06/22 02:35:04;;;;;;;21.38;12.25;;;18.10;99.90;;;;;;5008905;28;20492;-77
2023/06/22 02:37:30;;;;;;;24.58;12.40;;;18.20;99.90;;;;;;5007615;28;20040;-77
2023/06/22 02:39:56;;;;;;;21.75;12.45;;;18.20;99.90;;;;;;5010761;28;20555;-76
2023/06/22 02:42:22;;;;;;;22.85;13.48;;;18.10;99.90;;;;;;5008469;28;20106;-73
2023/06/22 02:44:47;;;;;;;22.83;12.85;;;18.10;99.90;;;;;;5007803;28;20498;-74
2023/06/22 02:47:13;;;;;;;20.73;12.48;;;18.00;99.90;;;;;;5008788;28;20458;-77
2023/06/22 02:49:39;;;;;;;24.50;12.88;;;18.00;99.90;;;;;;5008289;28;20026;-77
2023/06/22 02:52:05;;;;;;;23.58;13.45;;;18.00;99.90;;;;;;5008663;28;20442;-76
2023/06/22 02:54:30;;;;;;;24.33;13.40;;;18.00;99.90;;;;;;5006874;28;20497;-78
2023/06/22 02:56:56;;;;;;;24.23;13.38;;;18.00;99.90;;;;;;5008085;28;20032;-75
2023/06/22 02:59:25;;;;;;;24.27;12.13;;;17.90;99.90;;;;;;5005564;28;20057;-72
2023/06/22 03:01:50;;;;;;;23.38;13.15;;;17.80;99.90;;;;;;5005114;28;20042;-75
2023/06/22 03:04:17;;;;;;;25.38;13.63;;;17.70;99.90;;;;;;5007346;28;20493;-76
2023/06/22 03:06:43;;;;;;;23.42;12.95;;;17.70;99.90;;;;;;5010685;28;20029;-77
2023/06/22 03:09:09;;;;;;;24.58;13.77;;;17.70;99.90;;;;;;5007824;28;20029;-76
2023/06/22 03:11:35;;;;;;;24.50;13.15;;;17.70;99.90;;;;;;5022861;28;20057;-74
2023/06/22 03:14:01;;;;;;;20.10;12.73;;;17.60;99.90;;;;;;5010158;28;20033;-77
2023/06/22 03:16:27;;;;;;;21.50;12.93;;;17.60;99.90;;;;;;5010528;28;20042;-75
2023/06/22 03:18:53;;;;;;;19.80;12.38;;;17.70;99.90;;;;;;5007301;28;20105;-76
2023/06/22 03:21:21;;;;;;;22.92;13.27;;;17.70;99.90;;;;;;5010191;28;20084;-76
2023/06/22 03:23:47;;;;;;;25.92;13.88;;;17.80;99.90;;;;;;4999130;28;20026;-77
2023/06/22 03:26:16;;;;;;;23.17;13.93;;;17.80;99.90;;;;;;5011832;28;20368;-77
2023/06/22 03:28:42;;;;;;;21.55;12.75;;;17.80;99.90;;;;;;5010503;28;20093;-78
2023/06/22 03:31:08;;;;;;;27.50;13.10;;;17.80;99.90;;;;;;5011797;28;20105;-78
2023/06/22 03:33:33;;;;;;;20.33;13.00;;;17.80;99.90;;;;;;5010771;28;20058;-77
2023/06/22 03:35:59;;;;;;;26.13;13.50;;;17.70;99.90;;;;;;5011014;28;20088;-74
2023/06/22 03:38:25;;;;;;;25.00;14.63;;;17.70;99.90;;;;;;5010324;28;20054;-74
2023/06/22 03:40:50;;;;;;;23.05;13.27;;;17.70;99.90;;;;;;5019202;28;20048;-79
2023/06/22 03:43:16;;;;;;;23.02;13.70;;;17.50;99.90;;;;;;5025583;28;20034;-76
2023/06/22 03:45:42;;;;;;;24.17;13.15;;;17.50;99.90;;;;;;5010338;28;20102;-77
2023/06/22 03:48:07;;;;;;;24.83;14.38;;;17.50;99.90;;;;;;5011682;28;20042;-76
2023/06/22 03:50:33;;;;;;;26.75;14.55;;;17.50;99.90;;;;;;5010853;28;20489;-77
2023/06/22 03:52:58;;;;;;;25.23;14.20;;;17.60;99.90;;;;;;5011457;28;20026;-78
2023/06/22 03:55:24;;;;;;;26.20;14.70;;;17.60;99.90;;;;;;5011330;28;20037;-72
2023/06/22 03:57:50;;;;;;;26.90;14.52;;;17.60;99.90;;;;;;5011306;28;20506;-74
2023/06/22 04:00:15;;;;;;;24.13;14.27;;;17.70;99.90;;;;;;5003181;28;20030;-77
2023/06/22 04:02:42;;;;;;;25.42;13.95;;;17.70;99.90;;;;;;5010880;28;20037;-78
2023/06/22 04:05:09;;;;;;;27.02;14.43;;;17.80;99.90;;;;;;5010761;28;20367;-79
2023/06/22 04:07:36;;;;;;;26.55;15.10;;;17.90;99.90;;;;;;5010649;28;20025;-77
2023/06/22 04:10:03;;;;;;;27.38;15.32;;;18.00;99.90;;;;;;5011234;28;20049;-78
2023/06/22 04:12:29;;;;;;;36.92;15.73;;;18.10;99.90;;;;;;5010459;28;20028;-79
2023/06/22 04:14:55;;;;;;;28.10;15.38;;;18.10;99.90;;;;;;5011254;28;20034;-77
2023/06/22 04:17:20;;;;;;;27.50;15.45;;;18.10;99.90;;;;;;5011096;28;20364;-73
2023/06/22 04:19:46;;;;;;;27.38;15.32;;;18.10;99.90;;;;;;5010376;28;20277;-82
2023/06/22 04:22:11;;;;;;;24.73;15.15;;;18.20;99.90;;;;;;5008664;28;20079;-73
2023/06/22 04:24:37;;;;;;;24.85;14.48;;;18.20;99.90;;;;;;5009022;28;20087;-71
2023/06/22 04:27:03;;;;;;;24.05;14.10;;;18.20;99.90;;;;;;5011099;28;20046;-77
2023/06/22 04:29:30;;;;;;;22.88;14.90;;;18.20;99.90;;;;;;5008526;28;20508;-76
2023/06/22 04:32:02;;;;;;;29.17;14.73;;;18.20;99.90;;;;;;5010523;28;20538;-78
2023/06/22 04:34:29;;;;;;;25.13;14.38;;;18.30;99.90;;;;;;5010191;28;20054;-74
2023/06/22 04:36:54;;;;;;;26.05;14.98;;;18.30;99.90;;;;;;5010849;28;20030;-77
2023/06/22 04:39:21;;;;;;;25.10;15.55;;;18.30;99.90;;;;;;5009448;28;20041;-76
2023/06/22 04:41:47;;;;;;;33.67;15.85;;;18.30;99.90;;;;;;5009762;28;20037;-77
2023/06/22 04:44:23;;;;;;;31.45;15.65;;;18.30;99.90;;;;;;5010818;28;20421;-76
2023/06/22 04:47:03;;;;;;;31.67;15.52;;;18.40;99.90;;;;;;5009929;28;20100;-76
2023/06/22 04:49:33;;;;;;;27.08;14.88;;;18.50;99.90;;;;;;5009979;28;20030;-74
2023/06/22 04:51:59;;;;;;;31.83;16.00;;;18.60;99.90;;;;;;5009603;28;20040;-80
2023/06/22 04:54:25;;;;;;;30.80;15.60;;;18.80;99.90;;;;;;5010504;28;20110;-78
2023/06/22 04:56:56;;;;;;;28.02;15.25;;;19.00;99.90;;;;;;5015022;28;20121;-77
2023/06/22 04:59:30;;;;;;;26.17;14.90;;;19.10;99.90;;;;;;5009294;28;20109;-77
2023/06/22 05:02:00;;;;;;;26.73;14.43;;;19.30;99.90;;;;;;5007912;28;20045;-77
2023/06/22 05:04:27;;;;;;;27.42;14.73;;;19.40;99.90;;;;;;4997765;28;20030;-76
2023/06/22 05:06:54;;;;;;;29.75;14.50;;;19.50;99.90;;;;;;5009952;28;20034;-76
2023/06/22 05:09:21;;;;;;;27.60;14.88;;;19.60;99.90;;;;;;5010262;28;20030;-75
2023/06/22 05:11:47;;;;;;;26.75;14.10;;;19.60;99.90;;;;;;5008561;28;20052;-74
2023/06/22 05:14:13;;;;;;;26.00;13.93;;;19.60;99.90;;;;;;5010121;28;20030;-77
2023/06/22 05:16:41;;;;;;;22.13;13.98;;;19.70;99.90;;;;;;5007861;28;20025;-77
2023/06/22 05:19:08;;;;;;;23.98;14.27;;;19.70;99.90;;;;;;5005265;28;20077;-77
2023/06/22 05:21:33;;;;;;;23.55;13.70;;;19.80;99.90;;;;;;4989531;28;20034;-79
2023/06/22 05:24:02;;;;;;;28.45;13.57;;;19.90;99.90;;;;;;5001348;28;20033;-76
2023/06/22 05:26:33;;;;;;;20.92;12.75;;;20.00;99.90;;;;;;5009678;28;20462;-76
2023/06/22 05:29:00;;;;;;;;;;;20.20;99.90;;;;;;4992268;28;20052;-77
2023/06/22 05:31:26;;;;;;;26.02;12.88;;;20.30;99.90;;;;;;5012277;28;19910;-80
2023/06/22 05:33:53;;;;;;;23.33;13.80;;;20.40;99.90;;;;;;5005460;28;20081;-77
2023/06/22 05:36:25;;;;;;;23.98;13.80;;;20.50;99.90;;;;;;5009235;28;20437;-82
2023/06/22 05:38:56;;;;;;;24.15;13.88;;;20.50;99.90;;;;;;5007707;28;20105;-79
2023/06/22 05:41:21;;;;;;;25.80;13.13;;;20.50;99.90;;;;;;5009457;28;20790;-79
2023/06/22 05:43:47;;;;;;;21.48;13.07;;;20.60;99.90;;;;;;5007135;28;20030;-79
2023/06/22 05:46:13;;;;;;;25.42;13.40;;;20.70;99.90;;;;;;5008739;28;20455;-76
2023/06/22 05:48:39;;;;;;;21.05;12.35;;;20.90;99.90;;;;;;5006978;28;20064;-74
2023/06/22 05:51:04;;;;;;;28.33;12.80;;;21.10;99.90;;;;;;5007972;28;20038;-78
2023/06/22 05:53:30;;;;;;;19.05;11.75;;;21.30;99.90;;;;;;5009246;28;20117;-75
2023/06/22 05:55:56;;;;;;;20.20;11.60;;;21.40;99.90;;;;;;5009003;28;20091;-78
2023/06/22 05:58:21;;;;;;;20.83;11.77;;;21.50;99.90;;;;;;5009483;28;20021;-76
2023/06/22 06:00:47;;;;;;;20.90;11.05;;;21.70;99.90;;;;;;5013083;28;20045;-73
2023/06/22 06:03:16;;;;;;;20.73;11.50;;;21.80;99.90;;;;;;5008287;28;20159;-73
2023/06/22 06:05:42;;;;;;;16.73;10.65;;;21.70;99.90;;;;;;5008459;28;20038;-75
2023/06/22 06:08:10;;;;;;;17.80;11.10;;;21.80;99.90;;;;;;5006978;28;20068;-71
2023/06/22 06:10:36;;;;;;;22.05;11.27;;;22.00;99.90;;;;;;5007389;28;20065;-77
2023/06/22 06:13:02;;;;;;;20.25;11.60;;;22.10;99.90;;;;;;5007889;28;20069;-75
2023/06/22 06:15:28;;;;;;;15.82;9.95;;;22.20;99.90;;;;;;4991485;28;20067;-75
2023/06/22 06:17:54;;;;;;;23.88;10.77;;;22.30;99.90;;;;;;5017698;28;20955;-78
2023/06/22 06:20:22;;;;;;;20.83;9.98;;;22.50;99.90;;;;;;5008730;28;20030;-73
2023/06/22 06:22:49;;;;;;;19.83;10.32;;;22.70;99.90;;;;;;5008066;28;20075;-75
2023/06/22 06:25:19;;;;;;;19.02;9.88;;;22.70;99.90;;;;;;5009091;28;20034;-73
2023/06/22 06:27:46;;;;;;;21.92;9.32;;;22.80;99.90;;;;;;5008271;28;20393;-73
2023/06/22 06:30:14;;;;;;;19.42;10.45;;;23.00;99.90;;;;;;5007926;28;20030;-74
2023/06/22 06:32:40;;;;;;;20.45;9.00;;;23.00;99.90;;;;;;5007641;28;20052;-73
2023/06/22 06:35:07;;;;;;;19.90;10.00;;;23.00;99.90;;;;;;5008002;28;20069;-74
2023/06/22 06:37:37;;;;;;;15.07;8.85;;;23.20;99.90;;;;;;5007210;28;20049;-72
2023/06/22 06:40:05;;;;;;;35.38;8.68;;;23.30;99.90;;;;;;4989551;28;20441;-71
2023/06/22 06:42:31;;;;;;;13.60;7.80;;;23.30;99.90;;;;;;4989301;28;20034;-77
2023/06/22 06:44:57;;;;;;;14.90;8.15;;;23.20;99.90;;;;;;4988666;28;20461;-80
2023/06/22 06:47:23;;;;;;;12.02;7.82;;;23.30;99.90;;;;;;4989302;28;20495;-77
2023/06/22 06:49:48;;;;;;;13.27;7.03;;;23.50;99.90;;;;;;4991084;28;20085;-76
2023/06/22 06:52:17;;;;;;;13.45;7.60;;;23.50;99.90;;;;;;4993247;28;20441;-73
2023/06/22 06:54:43;;;;;;;16.05;7.32;;;23.50;99.90;;;;;;4992247;28;20475;-75
2023/06/22 06:57:10;;;;;;;17.05;6.90;;;23.60;99.90;;;;;;4992917;28;20057;-76
2023/06/22 06:59:36;;;;;;;14.50;6.72;;;23.80;99.90;;;;;;4992425;28;20026;-75
2023/06/22 07:02:01;;;;;;;12.73;6.15;;;24.00;99.90;;;;;;5002605;28;20449;-78
2023/06/22 07:04:27;;;;;;;14.65;6.90;;;24.10;99.90;;;;;;5003627;28;20044;-74
2023/06/22 07:06:53;;;;;;;10.95;5.80;;;24.20;99.90;;;;;;5004696;28;20049;-76
2023/06/22 07:09:18;;;;;;;16.65;6.38;;;24.30;99.90;;;;;;5003422;28;20124;-78
2023/06/22 07:11:44;;;;;;;11.73;5.28;;;24.40;99.90;;;;;;4996608;28;21152;-77
2023/06/22 07:14:09;;;;;;;10.55;5.32;;;24.60;99.90;;;;;;5010685;28;20084;-74
2023/06/22 07:16:35;;;;;;;14.18;5.68;;;24.90;99.90;;;;;;5004890;28;20029;-73
2023/06/22 07:19:01;;;;;;;9.73;5.18;;;24.80;99.90;;;;;;5007626;28;20038;-76
2023/06/22 07:21:27;;;;;;;10.48;5.45;;;24.90;99.90;;;;;;5018538;28;20064;-76
2023/06/22 07:23:52;;;;;;;13.80;5.35;;;25.00;99.90;;;;;;5030908;28;20064;-76
2023/06/22 07:26:18;;;;;;;12.25;4.80;;;25.20;99.90;;;;;;5031860;28;20057;-78
2023/06/22 07:28:43;;;;;;;15.15;5.25;;;25.40;99.90;;;;;;5012071;28;20085;-77
2023/06/22 07:31:09;;;;;;;12.20;4.97;;;25.60;99.90;;;;;;5020190;28;20087;-77
2023/06/22 07:33:35;;;;;;;8.85;4.88;;;25.80;99.90;;;;;;5018999;28;20050;-71
2023/06/22 07:36:02;;;;;;;17.75;4.97;;;25.90;99.90;;;;;;5011393;28;20076;-77
2023/06/22 07:38:28;;;;;;;14.13;4.72;;;26.20;99.90;;;;;;5011712;28;20037;-79
2023/06/22 07:40:53;;;;;;;11.23;4.95;;;26.30;99.90;;;;;;5011190;28;20080;-80
2023/06/22 07:43:19;;;;;;;14.07;4.65;;;26.40;99.90;;;;;;5011918;28;20045;-78
2023/06/22 07:45:55;;;;;;;32.72;6.38;;;26.50;99.90;;;;;;5011175;28;20030;-77
2023/06/22 07:48:22;;;;;;;17.70;5.00;;;26.60;99.90;;;;;;5010520;28;20034;-83
2023/06/22 07:50:48;;;;;;;14.10;4.20;;;26.80;99.90;;;;;;5010376;28;20041;-76
2023/06/22 07:53:14;;;;;;;9.80;4.07;;;26.80;99.90;;;;;;5010738;28;20446;-78
2023/06/22 07:55:39;;;;;;;11.70;4.40;;;26.90;99.90;;;;;;5010672;28;20030;-73
2023/06/22 07:58:05;;;;;;;10.63;4.20;;;27.00;99.90;;;;;;5011408;28;20080;-76
2023/06/22 08:00:30;;;;;;;15.98;4.50;;;27.10;99.90;;;;;;5010289;28;20038;-74
2023/06/22 08:02:56;;;;;;;18.95;5.40;;;27.10;99.90;;;;;;5010705;28;20038;-77
2023/06/22 08:05:24;;;;;;;9.68;4.93;;;27.20;99.90;;;;;;5011344;28;20033;-75
2023/06/22 08:07:50;;;;;;;17.83;4.93;;;27.40;99.90;;;;;;5010513;28;20041;-77
2023/06/22 08:10:16;;;;;;;13.07;5.13;;;27.40;99.90;;;;;;5010621;28;20529;-79
2023/06/22 08:12:42;;;;;;;17.10;5.10;;;27.40;99.90;;;;;;5009680;28;20040;-76
2023/06/22 08:15:09;;;;;;;12.10;4.95;;;27.70;99.90;;;;;;5010282;28;20489;-78
2023/06/22 08:17:39;;;;;;;10.93;4.57;;;27.70;99.90;;;;;;5010651;28;20033;-75
2023/06/22 08:20:10;;;;;;;16.58;5.13;;;27.80;99.90;;;;;;5010943;28;20520;-87
2023/06/22 08:22:38;;;;;;;15.60;5.45;;;27.80;99.90;;;;;;5011158;28;20034;-80
2023/06/22 08:25:05;;;;;;;11.10;5.03;;;27.70;99.90;;;;;;5010628;28;20064;-76
2023/06/22 08:27:33;;;;;;;12.68;4.90;;;27.70;99.90;;;;;;5011026;28;20032;-77
2023/06/22 08:29:59;;;;;;;13.35;5.70;;;27.90;99.90;;;;;;5009170;28;20700;-74
2023/06/22 08:32:29;;;;;;;11.32;5.18;;;28.10;99.90;;;;;;5009740;28;20038;-77
2023/06/22 08:34:56;;;;;;;18.37;5.47;;;28.30;99.90;;;;;;5010133;28;20082;-80
2023/06/22 08:37:24;;;;;;;15.10;5.80;;;28.30;99.90;;;;;;5010882;28;20034;-76
2023/06/22 08:39:50;;;;;;;15.05;5.80;;;28.30;99.90;;;;;;5009855;28;20474;-76
2023/06/22 08:42:16;;;;;;;13.57;5.70;;;28.30;99.90;;;;;;5009829;28;20036;-80
2023/06/22 08:44:42;;;;;;;13.30;5.55;;;28.30;99.90;;;;;;5010946;28;20030;-75
2023/06/22 08:47:08;;;;;;;15.75;6.20;;;28.40;99.90;;;;;;5008602;28;20026;-78
2023/06/22 08:49:33;;;;;;;22.30;5.88;;;28.60;99.90;;;;;;5010538;28;20081;-76
2023/06/22 08:52:01;;;;;;;13.63;5.90;;;28.70;99.90;;;;;;5009671;28;20567;-73
2023/06/22 08:54:34;;;;;;;17.00;7.00;;;28.70;99.90;;;;;;5009644;28;20104;-73
2023/06/22 08:57:06;;;;;;;17.50;6.38;;;28.60;99.90;;;;;;5009841;28;20026;-76
2023/06/22 08:59:32;;;;;;;17.95;6.07;;;28.70;99.70;;;;;;5010394;28;20026;-76
2023/06/22 09:01:57;;;;;;;14.07;6.00;;;28.80;99.50;;;;;;5009353;28;20099;-76
2023/06/22 09:04:24;;;;;;;15.32;5.80;;;29.00;99.90;;;;;;5010534;28;20429;-77
2023/06/22 09:06:50;;;;;;;22.67;6.15;;;29.20;99.20;;;;;;5009487;28;20037;-72
2023/06/22 09:09:16;;;;;;;17.48;6.55;;;29.20;99.00;;;;;;5010229;28;20030;-77
2023/06/22 09:11:42;;;;;;;16.65;6.38;;;29.30;99.00;;;;;;5007914;28;20033;-74
2023/06/22 09:14:09;;;;;;;17.48;6.15;;;29.50;99.40;;;;;;5009868;28;20022;-75
2023/06/22 09:16:35;;;;;;;16.25;6.50;;;29.70;98.90;;;;;;5010149;28;20053;-74
2023/06/22 09:19:01;;;;;;;20.60;6.85;;;29.80;98.20;;;;;;5009051;28;20218;-76
2023/06/22 09:21:27;;;;;;;20.38;6.80;;;30.00;97.50;;;;;;5009922;28;20479;-75
2023/06/22 09:23:52;;;;;;;17.83;6.63;;;30.10;97.70;;;;;;5009119;28;20034;-75
2023/06/22 09:26:19;;;;;;;19.58;6.78;;;30.10;96.90;;;;;;5009240;28;20039;-74
2023/06/22 09:28:45;;;;;;;18.90;6.55;;;30.20;97.10;;;;;;5010967;28;20030;-72
2023/06/22 09:31:10;;;;;;;13.73;6.72;;;30.30;96.00;;;;;;5003249;28;20045;-76
2023/06/22 09:33:39;;;;;;;17.83;6.80;;;30.40;96.10;;;;;;5002185;28;20053;-77
2023/06/22 09:36:09;;;;;;;20.92;7.28;;;30.60;96.40;;;;;;5001944;28;20247;-74
2023/06/22 09:38:38;;;;;;;18.40;7.35;;;30.80;95.70;;;;;;5017964;28;20101;-79
2023/06/22 09:41:04;;;;;;;24.23;7.38;;;30.50;95.40;;;;;;5018904;28;20030;-75
2023/06/22 09:43:34;;;;;;;18.48;7.43;;;30.60;95.50;;;;;;5008527;28;20045;-77
2023/06/22 09:46:06;;;;;;;16.85;7.47;;;30.90;94.80;;;;;;5007760;28;20061;-81
2023/06/22 09:48:34;;;;;;;19.92;8.02;;;31.20;93.20;;;;;;4991610;28;20022;-75
2023/06/22 09:51:00;;;;;;;15.85;7.10;;;30.90;93.30;;;;;;5010705;28;20042;-76
2023/06/22 09:53:26;;;;;;;27.15;7.43;;;30.90;93.40;;;;;;5009240;28;20761;-78
2023/06/22 09:55:54;;;;;;;23.95;7.95;;;31.10;93.50;;;;;;5005965;28;20033;-78
2023/06/22 09:58:20;;;;;;;19.45;7.03;;;31.40;94.10;;;;;;5002923;28;20034;-76
2023/06/22 10:00:46;;;;;;;27.25;7.88;;;31.80;93.40;;;;;;4995927;28;20521;-76
2023/06/22 10:03:12;;;;;;;22.98;7.38;;;32.00;92.70;;;;;;5004870;28;20061;-78
2023/06/22 10:05:37;;;;;;;17.88;7.60;;;32.00;92.70;;;;;;5008580;28;20112;-76
2023/06/22 10:08:03;;;;;;;20.50;7.93;;;31.90;92.40;;;;;;5007449;28;20758;-78
2023/06/22 10:10:29;;;;;;;17.02;7.50;;;32.00;92.50;;;;;;5008223;28;20030;-78
2023/06/22 10:12:57;;;;;;;25.70;7.90;;;32.00;92.60;;;;;;5007725;28;20026;-78
2023/06/22 10:15:23;;;;;;;29.00;8.73;;;31.80;91.50;;;;;;5007452;28;20040;-79
2023/06/22 10:17:54;;;;;;;21.00;7.97;;;31.30;92.70;;;;;;5007805;28;20030;-78
2023/06/22 10:20:21;;;;;;;27.10;8.32;;;31.20;93.10;;;;;;5006565;28;20125;-77
2023/06/22 10:22:47;;;;;;;15.60;7.88;;;31.30;92.10;;;;;;5007253;28;20069;-76
2023/06/22 10:25:16;;;;;;;21.35;8.60;;;31.30;92.30;;;;;;5007491;28;20064;-77
2023/06/22 10:27:42;;;;;;;24.30;8.15;;;31.10;92.50;;;;;;5008613;28;20383;-77
2023/06/22 10:30:15;;;;;;;27.33;7.72;;;31.10;93.10;;;;;;5001159;28;20034;-78
2023/06/22 10:32:47;;;;;;;24.73;8.02;;;31.30;94.40;;;;;;5003493;28;20025;-82
2023/06/22 10:35:15;;;;;;;23.80;8.23;;;31.50;92.60;;;;;;5008695;28;20057;-76
2023/06/22 10:37:47;;;;;;;19.75;7.55;;;31.50;92.70;;;;;;4991576;28;20060;-78
2023/06/22 10:40:14;;;;;;;19.67;7.82;;;31.60;92.50;;;;;;5007790;28;20541;-81
2023/06/22 10:42:50;;;;;;;22.58;7.82;;;31.80;91.60;;;;;;5008824;28;20034;-76
2023/06/22 10:45:15;;;;;;;17.35;8.05;;;32.20;91.10;;;;;;5002522;28;20026;-76
2023/06/22 10:47:44;;;;;;;23.83;7.95;;;32.70;90.80;;;;;;5022317;28;20031;-73
2023/06/22 10:50:13;;;;;;;28.02;8.48;;;32.90;90.10;;;;;;5000210;28;20060;-78
2023/06/22 10:52:41;;;;;;;20.73;8.48;;;33.00;90.50;;;;;;4999213;28;20088;-75
2023/06/22 10:55:07;;;;;;;16.00;7.60;;;32.90;87.40;;;;;;4998606;28;20022;-77
2023/06/22 10:57:33;;;;;;;15.88;7.10;;;32.60;89.80;;;;;;5002861;28;20045;-74
2023/06/22 10:59:59;;;;;;;24.02;8.00;;;32.70;87.70;;;;;;5021804;28;20034;-77
2023/06/22 11:02:28;;;;;;;23.15;7.53;;;32.40;85.70;;;;;;5021293;28;20036;-76
2023/06/22 11:04:53;;;;;;;21.90;8.00;;;32.40;88.90;;;;;;5007209;28;20041;-82
2023/06/22 11:07:19;;;;;;;23.55;7.95;;;32.90;88.70;;;;;;5007653;28;20093;-78
2023/06/22 11:09:48;;;;;;;23.40;8.02;;;33.50;85.70;;;;;;5008709;28;20040;-76
2023/06/22 11:12:13;;;;;;;20.23;8.13;;;33.40;85.60;;;;;;5008233;28;20040;-81
2023/06/22 11:14:39;;;;;;;21.05;7.60;;;33.10;84.60;;;;;;5008622;28;20518;-77
2023/06/22 11:17:05;;;;;;;20.73;7.93;;;32.80;88.20;;;;;;5007799;28;20064;-79
2023/06/22 11:19:31;;;;;;;23.08;8.13;;;32.60;85.10;;;;;;5009583;28;20049;-72
2023/06/22 11:21:57;;;;;;;20.35;7.50;;;32.40;85.10;;;;;;5005479;28;20546;-75
2023/06/22 11:24:22;;;;;;;24.25;7.53;;;32.50;87.70;;;;;;5015234;28;20478;-76
2023/06/22 11:26:48;;;;;;;18.77;7.57;;;32.80;85.10;;;;;;5006978;28;20030;-78
2023/06/22 11:29:14;;;;;;;21.48;7.90;;;32.90;85.10;;;;;;5008350;28;20061;-77
2023/06/22 11:31:43;;;;;;;18.67;7.97;;;32.70;85.70;;;;;;5008543;28;20038;-76
2023/06/22 11:34:09;;;;;;;19.45;8.55;;;32.30;85.60;;;;;;5008354;28;20076;-76
2023/06/22 11:36:35;;;;;;;20.27;7.72;;;32.40;87.70;;;;;;5011939;28;20397;-71
2023/06/22 11:39:01;;;;;;;17.23;7.35;;;32.50;85.70;;;;;;5009527;28;20037;-83
2023/06/22 11:41:27;;;;;;;16.70;7.15;;;32.70;86.60;;;;;;5011923;28;20038;-77
2023/06/22 11:43:53;;;;;;;25.95;7.63;;;32.80;84.00;;;;;;5011065;28;20432;-71
2023/06/22 11:46:18;;;;;;;32.65;8.18;;;33.10;83.00;;;;;;5011023;28;20062;-76
2023/06/22 11:48:47;;;;;;;18.05;8.10;;;33.00;82.90;;;;;;5011149;28;20029;-71
2023/06/22 11:51:14;;;;;;;21.40;8.00;;;32.60;82.50;;;;;;5010564;28;20054;-77
2023/06/22 11:53:40;;;;;;;19.08;8.07;;;32.70;82.10;;;;;;5010839;28;20056;-73
2023/06/22 11:56:05;;;;;;;20.77;8.13;;;33.20;86.00;;;;;;5011155;28;20029;-78
2023/06/22 11:58:34;;;;;;;28.52;8.63;;;33.90;83.70;;;;;;5010662;28;20084;-74
2023/06/22 12:00:59;;;;;;;21.23;8.77;;;34.10;82.00;;;;;;5008437;28;20788;-76
2023/06/22 12:03:25;;;;;;;20.63;8.07;;;33.70;82.50;;;;;;5011303;28;20041;-75
2023/06/22 12:05:52;;;;;;;19.67;8.27;;;33.70;81.10;;;;;;5001234;28;20473;-73
2023/06/22 12:08:18;;;;;;;28.00;8.80;;;33.80;80.40;;;;;;5007101;28;20021;-72
2023/06/22 12:10:44;;;;;;;15.95;8.15;;;33.80;80.20;;;;;;5006180;28;20143;-74
2023/06/22 12:13:09;;;;;;;22.42;8.45;;;33.30;80.70;;;;;;5003335;28;20069;-75
2023/06/22 12:15:35;;;;;;;23.35;8.75;;;32.80;84.10;;;;;;5006032;28;20030;-71
2023/06/22 12:18:01;;;;;;;27.48;8.65;;;32.40;82.90;;;;;;5003343;28;20026;-74
2023/06/22 12:20:26;;;;;;;22.55;8.05;;;32.20;85.20;;;;;;5004767;28;20030;-77
2023/06/22 12:22:53;;;;;;;20.65;8.55;;;32.10;85.40;;;;;;5004507;28;20040;-72
2023/06/22 12:25:19;;;;;;;27.77;8.95;;;32.10;84.90;;;;;;5004495;28;20050;-77
2023/06/22 12:27:45;;;;;;;21.17;7.60;;;32.10;84.00;;;;;;5007924;28;20066;-76
2023/06/22 12:30:11;;;;;;;22.75;8.27;;;31.80;83.50;;;;;;5006408;28;20041;-76
2023/06/22 12:32:36;;;;;;;20.85;8.10;;;31.60;87.10;;;;;;5009309;28;20564;-75